Time;durP1;ratioP1;P1;durP2;ratioP2;P2;SDS_P1;SDS_P2;PMS_P1;PMS_P2;Temp;Humidity;BMP_temperature;BMP_pressure;BME280_temperature;BME280_humidity;BME280_pressure;Samples;Min_cycle;Max_cycle;Signal;HPM_P1;HPM_P2
2022/05/25 00:01:56;;;;;;;11.33;10.33;;;;;;;19.47;84.85;94714.47;5035916;28;20442;-81
2022/05/25 00:04:23;;;;;;;11.07;9.47;;;;;;;19.50;84.61;94713.25;5035585;28;20462;-82
2022/05/25 00:06:51;;;;;;;10.70;9.43;;;;;;;19.56;84.20;94714.34;5035948;28;20442;-81
2022/05/25 00:09:18;;;;;;;11.67;9.97;;;;;;;19.58;84.02;94712.31;5035409;28;20456;-81
2022/05/25 00:11:46;;;;;;;11.40;10.10;;;;;;;19.61;83.92;94710.09;5035803;28;20501;-82
2022/05/25 00:14:14;;;;;;;14.00;10.80;;;;;;;19.60;83.23;94703.13;5017785;28;20485;-82
2022/05/25 00:16:41;;;;;;;11.37;10.17;;;;;;;19.58;83.17;94704.34;5035281;28;20443;-82
2022/05/25 00:21:52;;;;;;;11.50;10.37;;;;;;;19.55;83.23;94704.72;5035460;28;20427;-82
2022/05/25 00:24:19;;;;;;;10.40;9.40;;;;;;;19.55;83.24;94705.53;5000878;28;20454;-82
2022/05/25 00:26:50;;;;;;;11.00;9.83;;;;;;;19.56;83.26;94701.88;5035120;28;20443;-82
2022/05/25 00:29:17;;;;;;;11.23;9.63;;;;;;;19.56;82.60;94709.03;5034728;28;20525;-82
2022/05/25 00:31:44;;;;;;;11.13;10.00;;;;;;;19.53;82.30;94712.03;5035254;28;20454;-82
2022/05/25 00:34:11;;;;;;;11.77;10.53;;;;;;;19.48;82.41;94715.28;5035244;28;20495;-81
2022/05/25 00:36:38;;;;;;;10.03;9.17;;;;;;;19.45;82.75;94713.81;5035254;28;20457;-82
2022/05/25 00:39:05;;;;;;;10.17;9.27;;;;;;;19.44;82.83;94714.00;5034941;28;20463;-82
2022/05/25 00:41:33;;;;;;;13.77;11.03;;;;;;;19.43;82.77;94704.38;5034923;28;20446;-81
2022/05/25 00:44:02;;;;;;;11.03;9.93;;;;;;;19.45;82.46;94708.50;5035053;28;20447;-82
2022/05/25 00:46:30;;;;;;;11.90;10.27;;;;;;;19.40;82.60;94712.75;5033849;28;20458;-81
2022/05/25 00:49:01;;;;;;;10.97;9.90;;;;;;;19.39;82.42;94716.41;5034814;28;20439;-82
2022/05/25 00:51:35;;;;;;;13.00;9.80;;;;;;;19.36;82.58;94711.44;5034662;28;20769;-81
2022/05/25 00:54:06;;;;;;;11.20;10.10;;;;;;;19.32;82.67;94700.34;5034664;28;20473;-81
2022/05/25 00:56:35;;;;;;;10.47;9.47;;;;;;;19.27;82.82;94708.09;4999865;28;20443;-81
2022/05/25 00:59:09;;;;;;;10.13;9.13;;;;;;;19.28;82.96;94716.88;5034469;28;20514;-82
2022/05/25 01:01:36;;;;;;;12.17;10.10;;;;;;;19.22;83.35;94715.00;5034247;28;20450;-81
2022/05/25 01:04:03;;;;;;;10.17;9.27;;;;;;;19.21;83.58;94714.16;5034288;28;20462;-81
2022/05/25 01:06:43;;;;;;;9.67;8.70;;;;;;;19.15;83.69;94725.56;5034276;28;20427;-81
2022/05/25 01:09:22;;;;;;;10.53;9.17;;;;;;;19.16;83.59;94719.22;4999582;28;20435;-82
2022/05/25 01:12:00;;;;;;;10.13;9.27;;;;;;;19.12;83.81;94723.28;5034312;28;20438;-81
2022/05/25 01:14:40;;;;;;;12.03;10.83;;;;;;;19.05;83.92;94715.19;5034119;28;20490;-82
2022/05/25 01:17:15;;;;;;;10.77;9.80;;;;;;;19.05;83.96;94725.00;5034333;28;20873;-82
2022/05/25 01:20:03;;;;;;;13.60;9.53;;;;;;;19.05;84.07;94727.66;5034265;28;20445;-82
2022/05/25 01:23:01;;;;;;;16.63;10.10;;;;;;;19.04;84.23;94740.13;5034730;28;20501;-82
2022/05/25 01:25:53;;;;;;;11.27;10.07;;;;;;;19.03;84.19;94735.00;4992216;28;21051;-82
2022/05/25 01:28:32;;;;;;;11.00;9.10;;;;;;;19.03;83.81;94741.16;4992451;28;20429;-82
2022/05/25 01:31:06;;;;;;;10.90;9.90;;;;;;;19.01;83.57;94731.72;4992420;28;20440;-82
2022/05/25 01:33:41;;;;;;;10.77;9.67;;;;;;;18.92;83.61;94741.63;4992126;28;20983;-81
2022/05/25 01:36:15;;;;;;;11.00;10.03;;;;;;;18.81;84.05;94744.75;4992292;28;20455;-82
2022/05/25 01:38:48;;;;;;;12.43;11.17;;;;;;;18.69;84.68;94740.91;4992353;28;20445;-81
2022/05/25 01:41:21;;;;;;;11.20;9.97;;;;;;;18.67;84.76;94745.56;4992140;28;20445;-81
2022/05/25 01:43:54;;;;;;;12.37;11.27;;;;;;;18.60;85.46;94747.28;4992449;28;20447;-81
2022/05/25 01:46:35;;;;;;;9.87;8.97;;;;;;;18.53;85.88;94748.03;4992522;28;20453;-81
2022/05/25 01:49:05;;;;;;;10.70;9.80;;;;;;;18.31;87.39;94732.13;4944087;28;20458;-81
2022/05/25 01:51:36;;;;;;;12.67;11.57;;;;;;;18.36;87.54;94743.88;4992093;28;20433;-81
2022/05/25 01:54:06;;;;;;;12.77;11.17;;;;;;;18.31;87.64;94748.91;4992052;28;20472;-81
2022/05/25 01:56:38;;;;;;;11.00;10.00;;;;;;;18.17;88.38;94736.41;4991825;28;20452;-81
2022/05/25 01:59:09;;;;;;;13.30;11.90;;;;;;;18.20;88.33;94750.16;4991568;28;20440;-81
2022/05/25 02:01:47;;;;;;;10.80;9.80;;;;;;;18.16;88.01;94740.06;4997894;28;20469;-81
2022/05/25 02:04:22;;;;;;;14.77;10.83;;;;;;;18.21;88.17;94753.63;5001762;28;20439;-81
2022/05/25 02:07:26;;;;;;;11.27;10.17;;;;;;;18.16;88.09;94756.81;5033559;28;20967;-81
2022/05/25 02:10:12;;;;;;;11.87;10.70;;;;;;;18.13;88.55;94762.50;5011557;28;20454;-81
2022/05/25 02:12:54;;;;;;;12.37;11.00;;;;;;;18.16;88.66;94761.31;5011459;28;21024;-82
2022/05/25 02:15:29;;;;;;;17.07;11.80;;;;;;;18.15;88.92;94754.34;5011287;28;20989;-81
2022/05/25 02:18:05;;;;;;;13.23;11.90;;;;;;;18.20;88.62;94758.13;5011530;28;20940;-81
2022/05/25 02:20:42;;;;;;;16.53;11.97;;;;;;;18.23;88.34;94763.09;5011537;28;20431;-82
2022/05/25 02:23:29;;;;;;;12.30;10.87;;;;;;;18.25;88.03;94762.91;5011062;28;20449;-82
2022/05/25 02:26:03;;;;;;;13.47;11.37;;;;;;;18.24;87.59;94771.88;5011802;28;20455;-81
2022/05/25 02:28:35;;;;;;;14.10;11.77;;;;;;;18.21;87.53;94772.22;5011441;28;20506;-81
2022/05/25 02:31:05;;;;;;;13.97;11.47;;;;;;;18.19;87.59;94780.38;5011150;28;21010;-81
2022/05/25 02:33:38;;;;;;;13.67;11.80;;;;;;;18.17;87.57;94786.88;5010897;28;21033;-81
2022/05/25 02:36:08;;;;;;;11.63;10.43;;;;;;;18.17;87.38;94789.53;5011293;28;20486;-81
2022/05/25 02:38:37;;;;;;;21.63;11.60;;;;;;;18.18;87.45;94792.00;4979176;28;20555;-81
2022/05/25 02:41:06;;;;;;;13.43;11.40;;;;;;;18.15;87.23;94794.19;4979127;28;20475;-81
2022/05/25 02:43:36;;;;;;;12.50;10.50;;;;;;;18.12;87.30;94797.22;5018948;28;20446;-81
2022/05/25 02:46:03;;;;;;;12.50;11.27;;;;;;;18.15;87.27;94802.97;5033108;28;20843;-81
2022/05/25 02:48:29;;;;;;;17.37;11.50;;;;;;;18.18;86.72;94807.09;5033353;28;20454;-81
2022/05/25 02:50:58;;;;;;;12.50;11.30;;;;;;;18.17;86.20;94806.28;4998520;28;20438;-81
2022/05/25 02:53:25;;;;;;;15.13;11.50;;;;;;;18.11;86.52;94806.19;5033195;28;20446;-81
2022/05/25 02:55:52;;;;;;;14.40;12.50;;;;;;;18.01;86.94;94808.25;5033232;28;20831;-81
2022/05/25 02:58:18;;;;;;;14.60;13.10;;;;;;;17.92;87.41;94813.59;5033217;28;20448;-81
2022/05/25 03:00:46;;;;;;;12.97;11.73;;;;;;;17.88;87.78;94812.31;4997927;28;20438;-81
2022/05/25 03:03:13;;;;;;;12.33;11.00;;;;;;;17.87;88.26;94813.31;5032964;28;20886;-81
2022/05/25 03:05:41;;;;;;;13.43;12.10;;;;;;;17.89;88.26;94813.97;5033158;28;20442;-81
2022/05/25 03:08:10;;;;;;;13.77;12.47;;;;;;;17.87;88.14;94805.34;5033085;28;20537;-81
2022/05/25 03:10:37;;;;;;;12.47;11.13;;;;;;;17.76;88.75;94803.13;5036594;28;20446;-81
2022/05/25 03:13:06;;;;;;;16.83;13.30;;;;;;;17.71;89.57;94810.78;5036286;28;20450;-82
2022/05/25 03:15:34;;;;;;;13.90;12.37;;;;;;;17.70;90.09;94813.63;5036878;28;20482;-82
2022/05/25 03:18:01;;;;;;;17.53;12.33;;;;;;;17.71;89.57;94824.06;5018352;28;20446;-81
2022/05/25 03:20:29;;;;;;;21.70;13.80;;;;;;;17.78;89.52;94822.34;5036437;28;20431;-81
2022/05/25 03:22:56;;;;;;;14.53;13.10;;;;;;;17.84;89.06;94818.97;5036417;28;20467;-81
2022/05/25 03:25:24;;;;;;;17.10;12.40;;;;;;;17.95;88.61;94828.38;5036684;28;20451;-81
2022/05/25 03:27:52;;;;;;;15.70;11.83;;;;;;;18.06;87.64;94827.13;5036132;28;20438;-81
2022/05/25 03:30:20;;;;;;;14.40;13.10;;;;;;;18.14;86.96;94835.84;5002114;28;20442;-82
2022/05/25 03:32:47;;;;;;;15.60;13.33;;;;;;;18.18;86.93;94838.97;5036119;28;20450;-80
2022/05/25 03:35:15;;;;;;;14.30;12.80;;;;;;;18.24;86.67;94835.63;5035679;28;20486;-81
2022/05/25 03:37:42;;;;;;;14.93;12.20;;;;;;;18.30;86.42;94842.06;5036161;28;20455;-81
2022/05/25 03:40:12;;;;;;;20.97;14.27;;;;;;;18.42;86.12;94845.94;5036079;28;20466;-81
2022/05/25 03:42:41;;;;;;;14.80;12.77;;;;;;;18.48;85.64;94846.03;5002096;28;20443;-81
2022/05/25 03:45:10;;;;;;;14.50;13.07;;;;;;;18.49;85.44;94855.66;5036016;28;20450;-81
2022/05/25 03:47:37;;;;;;;14.57;12.73;;;;;;;18.50;85.13;94853.81;5035202;28;20447;-81
2022/05/25 03:50:04;;;;;;;16.53;13.50;;;;;;;18.51;85.14;94861.66;5036200;28;20453;-81
2022/05/25 03:52:31;;;;;;;20.10;14.37;;;;;;;18.45;85.09;94858.84;5001576;28;20439;-81
2022/05/25 03:54:58;;;;;;;14.77;13.20;;;;;;;18.35;85.70;94861.78;5036297;28;20486;-81
2022/05/25 03:57:25;;;;;;;15.93;14.27;;;;;;;18.18;86.94;94855.75;5035926;28;20773;-81
2022/05/25 03:59:53;;;;;;;16.27;13.57;;;;;;;18.18;87.06;94868.19;5036039;28;20451;-81
2022/05/25 04:02:20;;;;;;;22.33;14.37;;;;;;;18.19;87.63;94867.19;5035800;28;20439;-80
2022/05/25 04:04:47;;;;;;;16.20;14.00;;;;;;;18.26;87.36;94870.81;5035665;28;20457;-81
2022/05/25 04:07:14;;;;;;;17.93;15.30;;;;;;;18.37;87.05;94867.72;5035526;28;20443;-81
2022/05/25 04:09:41;;;;;;;16.50;14.30;;;;;;;18.58;86.78;94878.53;5035567;28;20525;-81
2022/05/25 04:12:09;;;;;;;14.07;12.57;;;;;;;18.85;85.45;94873.66;5035726;28;20457;-82
2022/05/25 04:14:36;;;;;;;17.17;13.00;;;;;;;19.03;83.97;94878.63;5001386;28;20988;-82
2022/05/25 04:17:05;;;;;;;17.80;14.30;;;;;;;19.32;82.57;94872.47;5035396;28;20465;-82
2022/05/25 04:19:38;;;;;;;16.60;14.83;;;;;;;19.61;81.10;94879.66;5034932;28;20908;-82
2022/05/25 04:22:05;;;;;;;14.03;12.70;;;;;;;19.85;79.56;94887.34;5001954;28;20942;-82
2022/05/25 04:24:32;;;;;;;20.03;15.70;;;;;;;20.08;79.00;94885.34;5035609;28;20496;-81
2022/05/25 04:27:01;;;;;;;19.93;14.30;;;;;;;20.34;77.43;94875.97;5039418;28;20945;-82
2022/05/25 04:29:28;;;;;;;14.50;13.10;;;;;;;20.55;76.22;94873.34;5044880;28;20892;-82
2022/05/25 04:31:55;;;;;;;18.20;13.80;;;;;;;20.62;75.71;94876.06;5053801;28;20449;-82
2022/05/25 04:34:23;;;;;;;15.40;13.80;;;;;;;20.72;74.83;94873.88;5053422;28;20983;-83
2022/05/25 04:36:50;;;;;;;14.63;13.10;;;;;;;20.97;73.97;94882.28;5053412;28;20465;-82
2022/05/25 04:39:17;;;;;;;15.23;12.90;;;;;;;21.20;73.03;94877.53;5053679;28;20468;-83
2022/05/25 04:41:43;;;;;;;13.63;12.27;;;;;;;21.30;72.42;94877.22;5053722;28;20525;-82
2022/05/25 04:44:10;;;;;;;16.43;14.13;;;;;;;21.51;71.74;94879.81;5054023;28;20530;-84
2022/05/25 04:46:37;;;;;;;19.03;14.77;;;;;;;21.62;70.76;94881.91;5054448;28;20457;-82
2022/05/25 04:49:04;;;;;;;15.43;13.27;;;;;;;21.85;70.12;94883.44;5054508;28;20536;-84
2022/05/25 04:51:32;;;;;;;19.20;12.73;;;;;;;21.95;69.61;94887.38;5019886;28;20943;-81
2022/05/25 04:53:59;;;;;;;17.13;13.50;;;;;;;22.08;69.14;94886.66;5054654;28;20913;-85
2022/05/25 04:59:10;;;;;;;12.60;11.40;;;;;;;22.54;67.83;94892.09;5053925;28;20560;-85
2022/05/25 05:04:59;;;;;;;13.93;12.53;;;;;;;23.01;65.46;94886.81;5054368;28;20959;-87
2022/05/25 05:07:32;;;;;;;18.10;13.07;;;;;;;23.05;65.55;94894.22;5055763;28;20430;-86
2022/05/25 05:10:01;;;;;;;17.10;12.17;;;;;;;23.19;65.39;94900.41;5054605;28;20442;-84
2022/05/25 05:12:28;;;;;;;12.33;11.23;;;;;;;23.27;64.79;94880.59;5053958;28;20488;-83
2022/05/25 05:21:38;;;;;;;16.00;13.53;;;;;;;23.86;65.23;94883.16;5054891;28;20460;-85
2022/05/25 05:24:07;;;;;;;14.70;13.13;;;;;;;23.85;64.67;94886.06;5054690;28;20460;-85
2022/05/25 05:26:36;;;;;;;14.97;11.17;;;;;;;23.89;64.43;94896.13;5054347;28;20872;-88
2022/05/25 05:29:03;;;;;;;12.73;11.40;;;;;;;23.83;64.63;94897.00;5054700;28;20457;-85
2022/05/25 05:31:30;;;;;;;13.97;12.23;;;;;;;23.78;65.25;94904.84;5055329;28;20797;-85
2022/05/25 05:33:57;;;;;;;15.60;14.00;;;;;;;23.66;65.92;94903.84;5054431;28;20486;-87
2022/05/25 05:36:28;;;;;;;13.07;11.67;;;;;;;23.69;64.69;94900.72;5056068;28;20485;-86
2022/05/25 05:39:00;;;;;;;14.10;12.57;;;;;;;23.46;64.55;94903.88;5021008;28;20529;-89
2022/05/25 05:41:34;;;;;;;14.87;12.93;;;;;;;22.94;66.96;94916.25;5019866;28;20438;-89
2022/05/25 05:44:03;;;;;;;13.67;12.27;;;;;;;23.12;67.12;94913.75;5035099;28;20452;-88
2022/05/25 05:46:31;;;;;;;13.53;12.30;;;;;;;23.23;67.28;94919.53;5035162;28;20427;-87
2022/05/25 05:48:58;;;;;;;13.60;12.40;;;;;;;23.42;66.26;94919.53;5035086;28;20447;-89
2022/05/25 05:51:25;;;;;;;16.00;12.17;;;;;;;23.76;65.16;94923.00;5007884;28;20438;-88
2022/05/25 05:53:52;;;;;;;14.07;12.77;;;;;;;24.07;63.87;94925.78;5038519;28;20801;-87
2022/05/25 05:56:19;;;;;;;25.07;11.73;;;;;;;24.39;63.17;94933.91;5048765;28;20486;-88
2022/05/25 05:58:48;;;;;;;21.93;12.53;;;;;;;24.65;62.26;94925.72;5033756;28;20450;-88
2022/05/25 06:01:15;;;;;;;15.27;12.57;;;;;;;24.77;60.88;94941.13;5033386;28;20435;-88
2022/05/25 06:03:42;;;;;;;13.07;11.87;;;;;;;24.71;61.54;94940.94;5033746;28;20450;-88
2022/05/25 06:06:08;;;;;;;19.13;12.40;;;;;;;24.74;61.27;94938.88;4999096;28;20435;-88
2022/05/25 06:08:35;;;;;;;17.53;13.07;;;;;;;24.82;62.10;94933.22;5033653;28;20435;-87
2022/05/25 06:11:02;;;;;;;11.97;10.83;;;;;;;25.15;61.63;94933.00;5033970;28;20430;-85
2022/05/25 06:13:29;;;;;;;21.20;12.90;;;;;;;25.33;60.09;94933.91;5034775;28;20425;-89
2022/05/25 06:21:29;;;;;;;23.83;14.10;;;;;;;25.89;57.33;94935.66;5033505;28;20425;-88
2022/05/25 06:23:57;;;;;;;20.00;15.40;;;;;;;25.73;57.39;94938.91;5034162;28;20454;-88
2022/05/25 06:26:27;;;;;;;25.10;15.47;;;;;;;25.67;58.52;94931.75;5033165;28;20435;-88
2022/05/25 06:28:54;;;;;;;17.47;15.20;;;;;;;25.75;57.62;94930.66;5033509;28;20443;-88
2022/05/25 06:31:22;;;;;;;18.03;14.27;;;;;;;25.80;57.82;94931.63;5033344;28;20453;-88
2022/05/25 06:33:50;;;;;;;17.03;14.10;;;;;;;25.84;57.17;94932.81;5033411;28;20481;-87
2022/05/25 06:43:00;;;;;;;19.77;14.50;;;;;;;25.70;57.85;94934.00;5052570;28;20433;-88
2022/05/25 06:45:27;;;;;;;18.13;15.17;;;;;;;26.21;57.13;94932.81;5057935;28;20437;-89
2022/05/25 06:47:55;;;;;;;16.70;13.10;;;;;;;26.63;55.69;94936.44;5057636;28;20434;-88
2022/05/25 06:50:22;;;;;;;15.30;13.73;;;;;;;26.90;55.06;94946.84;5057213;28;20437;-87
2022/05/25 06:52:51;;;;;;;15.77;14.13;;;;;;;27.11;54.10;94939.06;5056869;28;20434;-88
2022/05/25 06:58:52;;;;;;;26.90;13.63;;;;;;;27.61;52.63;94935.13;5057930;28;20397;-88
2022/05/25 07:01:19;;;;;;;19.03;13.27;;;;;;;27.71;51.58;94938.09;5057305;28;20838;-87
2022/05/25 07:03:47;;;;;;;16.77;14.20;;;;;;;27.77;51.16;94937.97;5057025;28;20438;-83
2022/05/25 07:06:17;;;;;;;22.13;14.13;;;;;;;27.52;53.27;94934.66;5057110;28;20449;-86
2022/05/25 07:08:45;;;;;;;15.60;13.00;;;;;;;27.58;53.03;94933.72;5056455;28;20438;-85
2022/05/25 07:11:12;;;;;;;19.93;14.30;;;;;;;27.65;51.90;94933.63;5056485;28;20450;-86
2022/05/25 07:13:41;;;;;;;17.90;13.60;;;;;;;27.71;52.11;94947.00;5056281;28;20450;-84
2022/05/25 07:16:10;;;;;;;15.73;14.10;;;;;;;27.74;51.33;94954.59;5056569;28;20477;-84
2022/05/25 07:18:38;;;;;;;15.00;13.03;;;;;;;27.76;52.36;94946.31;5056372;28;20434;-84
2022/05/25 07:21:08;;;;;;;19.03;12.83;;;;;;;27.85;52.21;94950.28;5038040;28;20453;-85
2022/05/25 07:23:36;;;;;;;16.00;12.43;;;;;;;27.94;52.33;94948.03;5057002;28;20464;-85
2022/05/25 07:26:03;;;;;;;19.07;12.73;;;;;;;28.00;50.66;94947.09;5057067;28;20429;-85
2022/05/25 07:28:30;;;;;;;18.07;12.80;;;;;;;28.04;50.71;94949.06;5057224;28;20520;-85
2022/05/25 07:31:03;;;;;;;18.40;12.60;;;;;;;27.96;50.79;94951.31;5056274;28;20423;-86
2022/05/25 07:33:31;;;;;;;18.93;12.43;;;;;;;27.81;50.85;94951.00;5055953;28;20470;-82
2022/05/25 07:35:58;;;;;;;13.57;12.03;;;;;;;27.76;51.49;94946.31;5056115;28;21021;-84
2022/05/25 07:38:29;;;;;;;20.60;12.83;;;;;;;27.51;51.20;94949.22;5056608;28;20452;-84
2022/05/25 07:40:58;;;;;;;13.13;11.73;;;;;;;27.61;51.07;94960.22;5060378;28;20574;-84
2022/05/25 07:43:28;;;;;;;17.27;12.67;;;;;;;27.89;51.64;94947.94;5059661;28;20457;-81
2022/05/25 07:45:55;;;;;;;18.00;12.20;;;;;;;28.10;51.84;94952.72;5057130;28;20438;-84
2022/05/25 07:48:22;;;;;;;24.03;11.60;;;;;;;28.41;51.21;94939.88;5056240;28;20437;-84
2022/05/25 07:50:49;;;;;;;21.37;14.23;;;;;;;28.12;50.96;94939.00;5055648;28;20430;-84
2022/05/25 07:56:05;;;;;;;15.33;11.77;;;;;;;28.14;50.95;94936.88;5035482;28;20453;-84
2022/05/25 07:58:32;;;;;;;16.63;11.80;;;;;;;28.32;51.02;94926.75;5017853;28;20537;-83
2022/05/25 08:01:03;;;;;;;17.10;11.60;;;;;;;28.43;50.65;94924.28;5035220;28;20442;-84
2022/05/25 08:06:14;;;;;;;14.80;11.90;;;;;;;27.35;51.70;94928.31;5035548;28;20528;-81
2022/05/25 08:08:45;;;;;;;19.57;12.03;;;;;;;27.46;52.78;94931.00;5036027;28;20945;-82
2022/05/25 08:11:17;;;;;;;14.77;10.30;;;;;;;27.52;52.55;94936.53;5036468;28;20451;-87
2022/05/25 08:13:47;;;;;;;16.03;10.40;;;;;;;27.77;51.06;94937.97;5035310;28;20975;-87
2022/05/25 08:16:17;;;;;;;15.27;10.83;;;;;;;27.97;50.27;94931.38;5036823;28;20488;-89
2022/05/25 08:18:44;;;;;;;14.60;10.70;;;;;;;28.25;50.50;94936.06;5037201;28;20474;-88
2022/05/25 08:21:11;;;;;;;10.97;9.83;;;;;;;28.12;50.64;94934.41;5035735;28;20447;-89
2022/05/25 08:23:38;;;;;;;13.73;9.63;;;;;;;28.15;51.00;94923.16;5035645;28;20450;-87
2022/05/25 08:26:05;;;;;;;14.23;9.83;;;;;;;28.31;50.58;94927.81;5034913;28;20538;-86
2022/05/25 08:28:33;;;;;;;20.07;9.70;;;;;;;28.41;49.61;94927.22;5036054;28;20458;-87
2022/05/25 08:31:00;;;;;;;15.23;8.50;;;;;;;28.06;49.93;94914.59;5035324;28;20439;-86
2022/05/25 08:33:27;;;;;;;10.33;8.57;;;;;;;28.05;49.19;94920.25;5035534;28;20470;-86
2022/05/25 08:35:54;;;;;;;9.43;7.50;;;;;;;28.24;48.73;94905.53;5035411;28;20471;-85
2022/05/25 08:38:22;;;;;;;9.60;8.40;;;;;;;28.32;49.11;94913.25;5034871;28;20461;-86
2022/05/25 08:40:51;;;;;;;9.90;7.90;;;;;;;27.98;48.66;94922.22;5035169;28;20437;-85
2022/05/25 08:43:22;;;;;;;8.83;7.93;;;;;;;28.19;49.75;94935.09;5034725;28;20435;-86
2022/05/25 08:45:54;;;;;;;8.30;7.50;;;;;;;28.32;48.00;94940.25;5016638;28;20443;-85
2022/05/25 08:51:47;;;;;;;9.57;8.43;;;;;;;28.28;46.81;94940.97;5033813;28;20430;-86
2022/05/25 08:54:15;;;;;;;8.50;7.53;;;;;;;28.46;47.95;94940.00;5038404;28;20448;-84
2022/05/25 08:56:47;;;;;;;13.53;8.63;;;;;;;28.40;47.76;94933.69;5054228;28;20492;-83
2022/05/25 08:59:19;;;;;;;17.90;9.23;;;;;;;28.36;46.94;94929.81;5054419;28;20503;-84
2022/05/25 09:01:51;;;;;;;12.70;8.63;;;;;;;28.50;48.06;94931.16;5054289;28;20457;-84
2022/05/25 09:04:24;;;;;;;14.70;9.40;;;;;;;28.76;47.59;94940.56;5054343;28;20460;-85
2022/05/25 09:06:59;;;;;;;11.40;9.47;;;;;;;28.94;46.84;94932.31;5053769;28;20442;-85
2022/05/25 09:09:35;;;;;;;16.17;9.57;;;;;;;28.98;47.83;94940.75;5054125;28;20430;-85
2022/05/25 09:12:08;;;;;;;18.87;9.03;;;;;;;28.86;46.59;94931.84;5054276;28;20452;-86
2022/05/25 09:14:39;;;;;;;15.27;8.60;;;;;;;28.83;46.62;94941.25;5053897;28;20434;-86
2022/05/25 09:17:13;;;;;;;14.83;9.33;;;;;;;28.75;47.74;94936.22;5054534;28;20512;-84
2022/05/25 09:19:44;;;;;;;25.83;8.87;;;;;;;28.71;47.62;94935.09;5054719;28;20461;-84
2022/05/25 09:22:14;;;;;;;10.97;9.30;;;;;;;28.74;47.67;94929.19;5054453;28;20533;-84
2022/05/25 09:24:41;;;;;;;8.97;8.07;;;;;;;28.55;50.37;94931.25;5054077;28;20457;-85
2022/05/25 09:27:11;;;;;;;12.83;9.80;;;;;;;28.75;50.51;94936.22;5053999;28;20452;-80
2022/05/25 09:29:38;;;;;;;12.50;9.40;;;;;;;28.81;50.79;94942.53;5054120;28;20430;-84
2022/05/25 09:32:21;;;;;;;36.53;12.13;;;;;;;28.90;49.11;94944.63;5053722;28;20434;-84
2022/05/25 09:34:54;;;;;;;18.07;11.60;;;;;;;29.02;48.59;94949.19;5053760;28;21018;-84
2022/05/25 09:37:33;;;;;;;12.73;10.50;;;;;;;28.42;48.26;94949.63;5054254;28;20508;-85
2022/05/25 09:40:02;;;;;;;14.47;9.57;;;;;;;28.34;50.73;94946.25;5053768;28;20445;-84
2022/05/25 09:42:34;;;;;;;13.87;10.10;;;;;;;28.20;49.02;94936.75;5053517;28;20445;-84
2022/05/25 09:45:01;;;;;;;11.17;8.77;;;;;;;28.19;50.04;94939.69;5053391;28;20441;-83
2022/05/25 09:47:41;;;;;;;13.90;9.20;;;;;;;28.20;48.60;94935.91;5053270;28;20445;-82
2022/05/25 09:50:14;;;;;;;16.17;9.03;;;;;;;28.25;48.54;94939.56;5053918;28;20457;-82
2022/05/25 09:52:46;;;;;;;11.57;9.10;;;;;;;28.35;48.80;94937.09;5053281;28;20445;-82
2022/05/25 09:55:20;;;;;;;11.67;9.63;;;;;;;28.20;48.91;94934.03;5053169;28;20536;-83
2022/05/25 09:57:55;;;;;;;14.77;10.60;;;;;;;28.25;48.86;94928.78;5052560;28;20891;-84
2022/05/25 10:00:38;;;;;;;16.90;10.37;;;;;;;28.29;48.25;94927.22;5053413;28;20240;-83
2022/05/25 10:03:10;;;;;;;16.07;9.43;;;;;;;28.14;50.03;94929.59;5053407;28;20815;-85
2022/05/25 10:05:53;;;;;;;16.43;10.10;;;;;;;27.64;50.94;94913.94;5034671;28;20446;-84
2022/05/25 10:08:32;;;;;;;18.20;11.23;;;;;;;27.99;48.79;94907.69;5053725;28;20437;-84
2022/05/25 10:11:09;;;;;;;18.33;10.00;;;;;;;28.14;48.60;94897.22;5053655;28;20481;-83
2022/05/25 10:13:41;;;;;;;17.60;10.60;;;;;;;28.35;48.74;94901.19;5053268;28;20456;-84
2022/05/25 10:16:21;;;;;;;21.30;11.27;;;;;;;28.58;47.80;94895.66;5053069;28;20487;-84
2022/05/25 10:18:50;;;;;;;16.60;10.37;;;;;;;28.72;47.81;94898.91;5054846;28;20450;-83
2022/05/25 10:21:26;;;;;;;16.77;10.13;;;;;;;28.87;47.62;94901.91;5057094;28;20912;-83
2022/05/25 10:23:54;;;;;;;14.53;9.67;;;;;;;28.94;48.71;94897.19;5057916;28;20464;-83
2022/05/25 10:26:32;;;;;;;11.93;9.37;;;;;;;28.94;48.75;94894.47;5057113;28;20461;-84
2022/05/25 10:29:05;;;;;;;13.10;9.87;;;;;;;28.79;49.94;94896.06;5057251;28;20433;-84
2022/05/25 10:37:19;;;;;;;17.17;9.40;;;;;;;28.67;49.53;94901.53;5056738;28;20832;-84
2022/05/25 10:39:58;;;;;;;11.73;9.50;;;;;;;28.64;48.71;94893.91;5057290;28;20442;-84
2022/05/25 10:42:29;;;;;;;14.23;10.70;;;;;;;28.79;49.34;94899.56;5056839;28;20511;-81
2022/05/25 10:45:06;;;;;;;13.40;9.13;;;;;;;28.98;48.39;94889.41;5057035;28;20450;-84
2022/05/25 10:47:58;;;;;;;12.43;9.47;;;;;;;29.20;48.92;94886.78;5056702;28;20463;-84
2022/05/25 10:50:31;;;;;;;22.40;10.40;;;;;;;29.27;49.36;94882.03;5056872;28;20430;-84
2022/05/25 10:53:05;;;;;;;15.10;9.77;;;;;;;29.04;46.76;94877.59;5057278;28;20515;-84
2022/05/25 10:55:35;;;;;;;18.87;9.53;;;;;;;29.09;48.08;94880.38;5057197;28;20450;-84
2022/05/25 10:58:19;;;;;;;16.63;10.23;;;;;;;29.01;45.44;94855.66;5056322;28;20996;-84
2022/05/25 11:01:01;;;;;;;15.53;11.03;;;;;;;29.16;47.55;94856.72;5056967;28;20440;-84
2022/05/25 11:03:55;;;;;;;18.50;10.50;;;;;;;29.30;47.26;94854.50;5055895;28;21002;-84
2022/05/25 11:06:38;;;;;;;12.73;9.67;;;;;;;29.29;48.06;94855.56;5036899;28;20439;-85
2022/05/25 11:09:18;;;;;;;18.60;9.70;;;;;;;29.51;48.88;94853.78;5018492;28;20863;-84
2022/05/25 11:11:51;;;;;;;19.03;9.80;;;;;;;29.65;48.26;94853.41;5034471;28;20442;-86
2022/05/25 11:14:38;;;;;;;17.93;9.80;;;;;;;29.47;47.42;94847.22;5036210;28;20446;-84
2022/05/25 11:17:13;;;;;;;17.67;10.20;;;;;;;29.50;47.31;94844.03;5036651;28;20492;-85
2022/05/25 11:19:54;;;;;;;14.43;9.03;;;;;;;29.27;46.00;94836.91;5036473;28;20449;-84
2022/05/25 11:22:35;;;;;;;16.63;10.13;;;;;;;29.06;46.49;94836.81;5036647;28;20987;-85
2022/05/25 11:25:16;;;;;;;13.40;10.10;;;;;;;29.27;46.23;94830.69;5042269;28;20476;-85
2022/05/25 11:27:57;;;;;;;11.00;8.23;;;;;;;29.47;46.86;94832.88;5055052;28;20458;-83
2022/05/25 11:30:33;;;;;;;14.57;9.57;;;;;;;29.64;47.52;94830.16;5046015;28;20446;-82
2022/05/25 11:33:17;;;;;;;13.53;8.87;;;;;;;29.79;45.13;94830.34;5016890;28;20448;-84
2022/05/25 11:35:51;;;;;;;14.50;9.63;;;;;;;29.87;45.12;94828.03;5048011;28;20448;-84
2022/05/25 11:38:39;;;;;;;10.13;9.10;;;;;;;30.01;45.18;94828.44;5046391;28;20469;-84
2022/05/25 11:41:22;;;;;;;14.80;9.57;;;;;;;30.11;45.03;94835.94;5048175;28;20532;-84
2022/05/25 11:44:03;;;;;;;12.43;8.23;;;;;;;30.22;45.36;94829.53;5055819;28;20784;-84
2022/05/25 11:46:41;;;;;;;15.50;9.10;;;;;;;30.25;44.40;94828.22;5055358;28;20548;-84
2022/05/25 11:49:28;;;;;;;11.30;9.63;;;;;;;30.31;44.57;94821.78;5054770;28;20446;-85
2022/05/25 11:52:07;;;;;;;15.50;9.10;;;;;;;30.07;44.81;94808.56;5052897;28;20449;-85
2022/05/25 11:54:51;;;;;;;10.93;8.90;;;;;;;30.16;45.67;94815.13;5053965;28;20774;-84
2022/05/25 11:57:35;;;;;;;9.63;8.50;;;;;;;30.18;43.59;94806.75;5054474;28;20482;-85
2022/05/25 12:00:27;;;;;;;13.03;9.03;;;;;;;30.35;43.54;94809.34;5036946;28;20441;-86
2022/05/25 12:03:35;;;;;;;12.83;9.50;;;;;;;30.44;42.98;94797.03;4973862;28;20960;-85
2022/05/25 12:06:14;;;;;;;11.80;8.97;;;;;;;30.64;47.03;94808.06;4897008;29;20532;-84
2022/05/25 12:08:56;;;;;;;11.27;7.97;;;;;;;30.69;42.85;94807.31;4896811;29;20445;-84
2022/05/25 12:11:37;;;;;;;15.40;7.30;;;;;;;30.72;39.93;94794.06;4887465;29;20449;-84
2022/05/25 12:14:23;;;;;;;22.77;8.00;;;;;;;30.64;39.43;94777.44;4893716;29;20446;-85
2022/05/25 12:16:53;;;;;;;15.70;9.10;;;;;;;30.56;42.38;94781.41;4847365;29;20472;-85
2022/05/25 12:19:24;;;;;;;13.33;8.90;;;;;;;30.50;42.93;94777.03;4897985;29;20449;-86
2022/05/25 12:21:54;;;;;;;19.73;8.73;;;;;;;30.46;42.43;94774.03;4897937;29;20452;-85
2022/05/25 12:24:26;;;;;;;12.37;8.93;;;;;;;30.43;40.42;94774.53;4852680;29;20460;-85
2022/05/25 12:26:58;;;;;;;9.93;8.13;;;;;;;30.36;38.22;94764.97;4897722;29;20453;-84